sensor_id;sensor_type;location;lat;lon;timestamp;P1;durP1;ratioP1;P2;durP2;ratioP2
16330;SDS011;8275;48.206;16.340;2024-01-15T00:00:05;4.90;;;3.40;;
16330;SDS011;8275;48.206;16.340;2024-01-15T00:02:37;4.47;;;3.93;;
16330;SDS011;8275;48.206;16.340;2024-01-15T00:05:05;6.60;;;4.40;;
16330;SDS011;8275;48.206;16.340;2024-01-15T00:07:35;4.93;;;3.90;;
16330;SDS011;8275;48.206;16.340;2024-01-15T00:10:04;12.50;;;5.13;;
16330;SDS011;8275;48.206;16.340;2024-01-15T00:12:33;5.80;;;4.67;;
16330;SDS011;8275;48.206;16.340;2024-01-15T00:15:02;7.00;;;4.43;;
16330;SDS011;8275;48.206;16.340;2024-01-15T00:17:32;5.57;;;5.07;;
16330;SDS011;8275;48.206;16.340;2024-01-15T00:20:02;6.67;;;4.27;;
16330;SDS011;8275;48.206;16.340;2024-01-15T00:22:32;5.80;;;4.33;;
16330;SDS011;8275;48.206;16.340;2024-01-15T00:25:02;8.70;;;5.27;;
16330;SDS011;8275;48.206;16.340;2024-01-15T00:27:30;5.87;;;5.03;;
16330;SDS011;8275;48.206;16.340;2024-01-15T00:29:59;8.00;;;5.20;;
16330;SDS011;8275;48.206;16.340;2024-01-15T00:32:28;7.43;;;5.97;;
16330;SDS011;8275;48.206;16.340;2024-01-15T00:34:56;5.47;;;4.60;;
16330;SDS011;8275;48.206;16.340;2024-01-15T00:37:26;5.80;;;5.13;;
16330;SDS011;8275;48.206;16.340;2024-01-15T00:39:55;8.07;;;5.03;;
16330;SDS011;8275;48.206;16.340;2024-01-15T00:42:23;9.10;;;5.63;;
16330;SDS011;8275;48.206;16.340;2024-01-15T00:44:52;6.70;;;4.97;;
16330;SDS011;8275;48.206;16.340;2024-01-15T00:47:21;8.10;;;6.43;;
16330;SDS011;8275;48.206;16.340;2024-01-15T00:49:50;8.13;;;5.83;;
16330;SDS011;8275;48.206;16.340;2024-01-15T00:52:18;6.43;;;5.33;;
16330;SDS011;8275;48.206;16.340;2024-01-15T00:54:48;5.80;;;5.18;;
16330;SDS011;8275;48.206;16.340;2024-01-15T00:57:16;5.55;;;4.70;;
16330;SDS011;8275;48.206;16.340;2024-01-15T00:59:46;6.72;;;4.68;;
16330;SDS011;8275;48.206;16.340;2024-01-15T01:02:15;5.90;;;4.10;;
16330;SDS011;8275;48.206;16.340;2024-01-15T01:04:44;4.93;;;3.97;;
16330;SDS011;8275;48.206;16.340;2024-01-15T01:07:12;5.27;;;4.40;;
16330;SDS011;8275;48.206;16.340;2024-01-15T01:09:40;4.03;;;3.63;;
16330;SDS011;8275;48.206;16.340;2024-01-15T01:12:11;5.20;;;3.90;;
16330;SDS011;8275;48.206;16.340;2024-01-15T01:14:40;4.63;;;4.07;;
16330;SDS011;8275;48.206;16.340;2024-01-15T01:17:08;6.67;;;4.57;;
16330;SDS011;8275;48.206;16.340;2024-01-15T01:19:37;4.33;;;3.93;;
16330;SDS011;8275;48.206;16.340;2024-01-15T01:22:06;4.97;;;3.88;;
16330;SDS011;8275;48.206;16.340;2024-01-15T01:24:34;6.15;;;4.65;;
16330;SDS011;8275;48.206;16.340;2024-01-15T01:27:03;7.07;;;4.77;;
16330;SDS011;8275;48.206;16.340;2024-01-15T01:29:33;7.03;;;4.67;;
16330;SDS011;8275;48.206;16.340;2024-01-15T01:32:02;6.10;;;4.23;;
16330;SDS011;8275;48.206;16.340;2024-01-15T01:34:32;5.63;;;4.82;;
16330;SDS011;8275;48.206;16.340;2024-01-15T01:37:09;9.40;;;4.82;;
16330;SDS011;8275;48.206;16.340;2024-01-15T01:39:39;5.43;;;4.50;;
16330;SDS011;8275;48.206;16.340;2024-01-15T01:42:09;7.30;;;4.18;;
16330;SDS011;8275;48.206;16.340;2024-01-15T01:44:39;8.67;;;5.73;;
16330;SDS011;8275;48.206;16.340;2024-01-15T01:47:07;7.32;;;4.97;;
16330;SDS011;8275;48.206;16.340;2024-01-15T01:49:37;8.40;;;6.72;;
16330;SDS011;8275;48.206;16.340;2024-01-15T01:52:05;6.30;;;4.87;;
16330;SDS011;8275;48.206;16.340;2024-01-15T01:54:36;6.43;;;5.30;;
16330;SDS011;8275;48.206;16.340;2024-01-15T01:57:06;6.83;;;5.87;;
16330;SDS011;8275;48.206;16.340;2024-01-15T01:59:35;6.13;;;5.38;;
16330;SDS011;8275;48.206;16.340;2024-01-15T02:02:06;7.20;;;6.33;;
16330;SDS011;8275;48.206;16.340;2024-01-15T02:04:35;5.73;;;5.23;;
16330;SDS011;8275;48.206;16.340;2024-01-15T02:07:04;9.30;;;5.53;;
16330;SDS011;8275;48.206;16.340;2024-01-15T02:09:33;6.93;;;5.97;;
16330;SDS011;8275;48.206;16.340;2024-01-15T02:12:01;8.90;;;7.40;;
16330;SDS011;8275;48.206;16.340;2024-01-15T02:14:31;7.53;;;6.70;;
16330;SDS011;8275;48.206;16.340;2024-01-15T02:16:59;10.47;;;7.97;;
16330;SDS011;8275;48.206;16.340;2024-01-15T02:19:29;8.57;;;6.27;;
16330;SDS011;8275;48.206;16.340;2024-01-15T02:21:58;7.73;;;7.00;;
16330;SDS011;8275;48.206;16.340;2024-01-15T02:24:28;10.07;;;7.90;;
16330;SDS011;8275;48.206;16.340;2024-01-15T02:26:56;8.57;;;7.10;;
16330;SDS011;8275;48.206;16.340;2024-01-15T02:29:25;8.47;;;7.10;;
16330;SDS011;8275;48.206;16.340;2024-01-15T02:31:53;6.70;;;6.07;;
16330;SDS011;8275;48.206;16.340;2024-01-15T02:34:21;9.20;;;7.23;;
16330;SDS011;8275;48.206;16.340;2024-01-15T02:36:50;8.38;;;6.25;;
16330;SDS011;8275;48.206;16.340;2024-01-15T02:39:18;9.83;;;8.03;;
16330;SDS011;8275;48.206;16.340;2024-01-15T02:41:48;9.53;;;7.50;;
16330;SDS011;8275;48.206;16.340;2024-01-15T02:44:18;7.20;;;5.73;;
16330;SDS011;8275;48.206;16.340;2024-01-15T02:46:46;10.75;;;7.28;;
16330;SDS011;8275;48.206;16.340;2024-01-15T02:49:15;10.67;;;7.93;;
16330;SDS011;8275;48.206;16.340;2024-01-15T02:51:43;9.07;;;7.33;;
16330;SDS011;8275;48.206;16.340;2024-01-15T02:54:13;8.77;;;7.57;;
16330;SDS011;8275;48.206;16.340;2024-01-15T02:56:41;13.07;;;7.20;;
16330;SDS011;8275;48.206;16.340;2024-01-15T02:59:11;11.03;;;7.93;;
16330;SDS011;8275;48.206;16.340;2024-01-15T03:01:39;8.40;;;7.13;;
16330;SDS011;8275;48.206;16.340;2024-01-15T03:04:08;9.10;;;7.00;;
16330;SDS011;8275;48.206;16.340;2024-01-15T03:06:36;10.80;;;8.00;;
16330;SDS011;8275;48.206;16.340;2024-01-15T03:09:05;10.00;;;7.23;;
16330;SDS011;8275;48.206;16.340;2024-01-15T03:11:36;8.67;;;7.53;;
16330;SDS011;8275;48.206;16.340;2024-01-15T03:14:05;11.87;;;8.40;;
16330;SDS011;8275;48.206;16.340;2024-01-15T03:16:35;11.03;;;7.93;;
16330;SDS011;8275;48.206;16.340;2024-01-15T03:19:03;15.77;;;8.03;;
16330;SDS011;8275;48.206;16.340;2024-01-15T03:21:32;11.50;;;7.63;;
16330;SDS011;8275;48.206;16.340;2024-01-15T03:24:00;9.80;;;8.80;;
16330;SDS011;8275;48.206;16.340;2024-01-15T03:26:30;12.37;;;8.83;;
16330;SDS011;8275;48.206;16.340;2024-01-15T03:28:59;13.10;;;9.43;;
16330;SDS011;8275;48.206;16.340;2024-01-15T03:31:27;13.00;;;8.47;;
16330;SDS011;8275;48.206;16.340;2024-01-15T03:33:57;10.30;;;8.07;;
16330;SDS011;8275;48.206;16.340;2024-01-15T03:36:26;10.40;;;7.30;;
16330;SDS011;8275;48.206;16.340;2024-01-15T03:38:54;10.53;;;8.43;;
16330;SDS011;8275;48.206;16.340;2024-01-15T03:41:22;9.73;;;8.03;;
16330;SDS011;8275;48.206;16.340;2024-01-15T03:43:51;10.33;;;8.60;;
16330;SDS011;8275;48.206;16.340;2024-01-15T03:46:19;12.43;;;9.17;;
16330;SDS011;8275;48.206;16.340;2024-01-15T03:48:48;11.00;;;8.90;;
16330;SDS011;8275;48.206;16.340;2024-01-15T03:51:18;11.60;;;8.27;;
16330;SDS011;8275;48.206;16.340;2024-01-15T03:53:47;11.63;;;10.20;;
16330;SDS011;8275;48.206;16.340;2024-01-15T03:56:15;12.20;;;10.37;;
16330;SDS011;8275;48.206;16.340;2024-01-15T03:58:44;13.37;;;9.97;;
16330;SDS011;8275;48.206;16.340;2024-01-15T04:01:12;14.27;;;11.13;;
16330;SDS011;8275;48.206;16.340;2024-01-15T04:03:41;13.73;;;10.40;;
16330;SDS011;8275;48.206;16.340;2024-01-15T04:06:09;12.63;;;10.83;;
16330;SDS011;8275;48.206;16.340;2024-01-15T04:08:39;14.70;;;9.27;;
16330;SDS011;8275;48.206;16.340;2024-01-15T04:11:07;12.87;;;9.87;;
16330;SDS011;8275;48.206;16.340;2024-01-15T04:13:36;12.73;;;9.63;;
16330;SDS011;8275;48.206;16.340;2024-01-15T04:16:07;12.67;;;10.57;;
16330;SDS011;8275;48.206;16.340;2024-01-15T04:18:37;13.23;;;9.43;;
16330;SDS011;8275;48.206;16.340;2024-01-15T04:21:05;10.40;;;9.33;;
16330;SDS011;8275;48.206;16.340;2024-01-15T04:23:34;9.63;;;8.63;;
16330;SDS011;8275;48.206;16.340;2024-01-15T04:26:04;14.30;;;9.87;;
16330;SDS011;8275;48.206;16.340;2024-01-15T04:28:33;11.77;;;9.60;;
16330;SDS011;8275;48.206;16.340;2024-01-15T04:31:01;11.93;;;8.07;;
16330;SDS011;8275;48.206;16.340;2024-01-15T04:33:30;10.67;;;9.23;;
16330;SDS011;8275;48.206;16.340;2024-01-15T04:36:01;12.17;;;9.63;;
16330;SDS011;8275;48.206;16.340;2024-01-15T04:38:32;11.43;;;8.83;;
16330;SDS011;8275;48.206;16.340;2024-01-15T04:41:02;12.07;;;9.30;;
16330;SDS011;8275;48.206;16.340;2024-01-15T04:43:33;12.63;;;9.37;;
16330;SDS011;8275;48.206;16.340;2024-01-15T04:46:01;11.80;;;9.20;;
16330;SDS011;8275;48.206;16.340;2024-01-15T04:48:31;13.57;;;10.93;;
16330;SDS011;8275;48.206;16.340;2024-01-15T04:51:00;14.03;;;9.77;;
16330;SDS011;8275;48.206;16.340;2024-01-15T04:53:32;17.13;;;12.27;;
16330;SDS011;8275;48.206;16.340;2024-01-15T04:56:02;16.40;;;11.07;;
16330;SDS011;8275;48.206;16.340;2024-01-15T04:58:33;14.00;;;9.20;;
16330;SDS011;8275;48.206;16.340;2024-01-15T05:01:01;14.20;;;10.17;;
16330;SDS011;8275;48.206;16.340;2024-01-15T05:03:30;13.60;;;10.43;;
16330;SDS011;8275;48.206;16.340;2024-01-15T05:05:58;13.13;;;9.47;;
16330;SDS011;8275;48.206;16.340;2024-01-15T05:08:27;15.03;;;9.77;;
16330;SDS011;8275;48.206;16.340;2024-01-15T05:10:55;18.20;;;10.07;;
16330;SDS011;8275;48.206;16.340;2024-01-15T05:13:25;18.90;;;10.77;;
16330;SDS011;8275;48.206;16.340;2024-01-15T05:15:54;14.93;;;10.50;;
16330;SDS011;8275;48.206;16.340;2024-01-15T05:18:23;13.33;;;10.00;;
16330;SDS011;8275;48.206;16.340;2024-01-15T05:20:51;10.67;;;9.53;;
16330;SDS011;8275;48.206;16.340;2024-01-15T05:23:20;12.50;;;9.50;;
16330;SDS011;8275;48.206;16.340;2024-01-15T05:25:48;14.53;;;10.47;;
16330;SDS011;8275;48.206;16.340;2024-01-15T05:28:17;14.13;;;10.20;;
16330;SDS011;8275;48.206;16.340;2024-01-15T05:30:47;14.47;;;10.50;;
16330;SDS011;8275;48.206;16.340;2024-01-15T05:33:17;12.33;;;10.10;;
16330;SDS011;8275;48.206;16.340;2024-01-15T05:35:45;13.30;;;10.43;;
16330;SDS011;8275;48.206;16.340;2024-01-15T05:38:14;9.83;;;8.83;;
16330;SDS011;8275;48.206;16.340;2024-01-15T05:40:42;14.03;;;11.23;;
16330;SDS011;8275;48.206;16.340;2024-01-15T05:43:11;12.37;;;8.90;;
16330;SDS011;8275;48.206;16.340;2024-01-15T05:45:42;11.53;;;9.40;;
16330;SDS011;8275;48.206;16.340;2024-01-15T05:48:12;14.10;;;9.67;;
16330;SDS011;8275;48.206;16.340;2024-01-15T05:50:41;12.57;;;10.53;;
16330;SDS011;8275;48.206;16.340;2024-01-15T05:53:10;11.23;;;9.90;;
16330;SDS011;8275;48.206;16.340;2024-01-15T05:55:38;10.47;;;8.07;;
16330;SDS011;8275;48.206;16.340;2024-01-15T05:58:07;12.37;;;9.43;;
16330;SDS011;8275;48.206;16.340;2024-01-15T06:00:36;10.53;;;8.77;;
16330;SDS011;8275;48.206;16.340;2024-01-15T06:03:04;12.03;;;8.00;;
16330;SDS011;8275;48.206;16.340;2024-01-15T06:05:35;12.13;;;9.83;;
16330;SDS011;8275;48.206;16.340;2024-01-15T06:08:03;11.67;;;8.40;;
16330;SDS011;8275;48.206;16.340;2024-01-15T06:10:31;9.40;;;7.93;;
16330;SDS011;8275;48.206;16.340;2024-01-15T06:13:00;13.97;;;7.70;;
16330;SDS011;8275;48.206;16.340;2024-01-15T06:15:29;13.50;;;7.00;;
16330;SDS011;8275;48.206;16.340;2024-01-15T06:17:58;8.53;;;7.63;;
16330;SDS011;8275;48.206;16.340;2024-01-15T06:20:26;9.57;;;7.67;;
16330;SDS011;8275;48.206;16.340;2024-01-15T06:22:56;8.57;;;6.73;;
16330;SDS011;8275;48.206;16.340;2024-01-15T06:25:25;8.90;;;7.50;;
16330;SDS011;8275;48.206;16.340;2024-01-15T06:27:53;8.57;;;7.40;;
16330;SDS011;8275;48.206;16.340;2024-01-15T06:30:21;12.87;;;8.50;;
16330;SDS011;8275;48.206;16.340;2024-01-15T06:32:50;12.40;;;7.43;;
16330;SDS011;8275;48.206;16.340;2024-01-15T06:35:19;10.47;;;7.10;;
16330;SDS011;8275;48.206;16.340;2024-01-15T06:37:49;8.07;;;7.17;;
16330;SDS011;8275;48.206;16.340;2024-01-15T06:40:18;8.17;;;7.33;;
16330;SDS011;8275;48.206;16.340;2024-01-15T06:42:47;13.30;;;7.20;;
16330;SDS011;8275;48.206;16.340;2024-01-15T06:45:15;12.57;;;8.83;;
16330;SDS011;8275;48.206;16.340;2024-01-15T06:47:44;13.90;;;8.47;;
16330;SDS011;8275;48.206;16.340;2024-01-15T06:50:12;8.80;;;7.03;;
16330;SDS011;8275;48.206;16.340;2024-01-15T06:52:41;13.90;;;8.93;;
16330;SDS011;8275;48.206;16.340;2024-01-15T06:55:09;9.53;;;7.33;;
16330;SDS011;8275;48.206;16.340;2024-01-15T06:57:40;13.43;;;8.53;;
16330;SDS011;8275;48.206;16.340;2024-01-15T07:00:09;11.70;;;8.13;;
16330;SDS011;8275;48.206;16.340;2024-01-15T07:02:39;12.97;;;7.30;;
16330;SDS011;8275;48.206;16.340;2024-01-15T07:05:08;12.47;;;8.90;;
16330;SDS011;8275;48.206;16.340;2024-01-15T07:07:37;16.43;;;8.00;;
16330;SDS011;8275;48.206;16.340;2024-01-15T07:10:06;19.47;;;8.13;;
16330;SDS011;8275;48.206;16.340;2024-01-15T07:12:35;12.13;;;8.33;;
16330;SDS011;8275;48.206;16.340;2024-01-15T07:15:06;10.27;;;6.77;;
16330;SDS011;8275;48.206;16.340;2024-01-15T07:17:36;12.17;;;8.60;;
16330;SDS011;8275;48.206;16.340;2024-01-15T07:20:06;8.90;;;7.90;;
16330;SDS011;8275;48.206;16.340;2024-01-15T07:22:36;10.17;;;7.93;;
16330;SDS011;8275;48.206;16.340;2024-01-15T07:25:05;12.83;;;7.23;;
16330;SDS011;8275;48.206;16.340;2024-01-15T07:27:34;9.43;;;6.47;;
16330;SDS011;8275;48.206;16.340;2024-01-15T07:30:02;8.27;;;6.97;;
16330;SDS011;8275;48.206;16.340;2024-01-15T07:32:34;11.30;;;7.43;;
16330;SDS011;8275;48.206;16.340;2024-01-15T07:35:03;15.97;;;6.23;;
16330;SDS011;8275;48.206;16.340;2024-01-15T07:37:32;10.33;;;7.03;;
16330;SDS011;8275;48.206;16.340;2024-01-15T07:40:01;9.83;;;7.23;;
16330;SDS011;8275;48.206;16.340;2024-01-15T07:42:31;14.13;;;7.13;;
16330;SDS011;8275;48.206;16.340;2024-01-15T07:45:00;7.97;;;7.17;;
16330;SDS011;8275;48.206;16.340;2024-01-15T07:47:30;19.17;;;8.23;;
16330;SDS011;8275;48.206;16.340;2024-01-15T07:49:59;9.67;;;6.80;;
16330;SDS011;8275;48.206;16.340;2024-01-15T07:52:31;7.93;;;6.70;;
16330;SDS011;8275;48.206;16.340;2024-01-15T07:55:00;9.27;;;7.33;;
16330;SDS011;8275;48.206;16.340;2024-01-15T07:57:30;9.13;;;7.53;;
16330;SDS011;8275;48.206;16.340;2024-01-15T07:59:59;8.27;;;6.43;;
16330;SDS011;8275;48.206;16.340;2024-01-15T08:02:29;7.43;;;6.63;;
16330;SDS011;8275;48.206;16.340;2024-01-15T08:05:02;9.37;;;6.13;;
16330;SDS011;8275;48.206;16.340;2024-01-15T08:07:32;8.63;;;7.03;;
16330;SDS011;8275;48.206;16.340;2024-01-15T08:10:00;10.30;;;7.53;;
16330;SDS011;8275;48.206;16.340;2024-01-15T08:12:29;9.30;;;7.13;;
16330;SDS011;8275;48.206;16.340;2024-01-15T08:14:59;9.43;;;6.87;;
16330;SDS011;8275;48.206;16.340;2024-01-15T08:17:29;10.70;;;7.10;;
16330;SDS011;8275;48.206;16.340;2024-01-15T08:19:58;8.17;;;6.50;;
16330;SDS011;8275;48.206;16.340;2024-01-15T08:22:28;8.67;;;6.63;;
16330;SDS011;8275;48.206;16.340;2024-01-15T08:24:57;8.57;;;5.87;;
16330;SDS011;8275;48.206;16.340;2024-01-15T08:27:26;10.07;;;7.07;;
16330;SDS011;8275;48.206;16.340;2024-01-15T08:29:54;10.90;;;8.73;;
16330;SDS011;8275;48.206;16.340;2024-01-15T08:32:23;8.53;;;6.10;;
16330;SDS011;8275;48.206;16.340;2024-01-15T08:34:53;8.80;;;7.10;;
16330;SDS011;8275;48.206;16.340;2024-01-15T08:37:21;10.63;;;6.80;;
16330;SDS011;8275;48.206;16.340;2024-01-15T08:39:50;9.63;;;6.37;;
16330;SDS011;8275;48.206;16.340;2024-01-15T08:42:18;10.50;;;7.83;;
16330;SDS011;8275;48.206;16.340;2024-01-15T08:44:47;12.07;;;8.53;;
16330;SDS011;8275;48.206;16.340;2024-01-15T08:47:16;9.57;;;6.90;;
16330;SDS011;8275;48.206;16.340;2024-01-15T08:49:45;15.57;;;8.17;;
16330;SDS011;8275;48.206;16.340;2024-01-15T08:52:14;14.93;;;8.32;;
16330;SDS011;8275;48.206;16.340;2024-01-15T08:54:43;9.33;;;6.23;;
16330;SDS011;8275;48.206;16.340;2024-01-15T08:57:11;6.93;;;6.37;;
16330;SDS011;8275;48.206;16.340;2024-01-15T08:59:40;6.25;;;5.50;;
16330;SDS011;8275;48.206;16.340;2024-01-15T09:02:08;23.87;;;6.73;;
16330;SDS011;8275;48.206;16.340;2024-01-15T09:04:37;8.32;;;6.85;;
16330;SDS011;8275;48.206;16.340;2024-01-15T09:07:05;8.17;;;5.40;;
16330;SDS011;8275;48.206;16.340;2024-01-15T09:09:36;6.55;;;5.05;;
16330;SDS011;8275;48.206;16.340;2024-01-15T09:12:05;17.70;;;5.63;;
16330;SDS011;8275;48.206;16.340;2024-01-15T09:14:34;5.87;;;4.77;;
16330;SDS011;8275;48.206;16.340;2024-01-15T09:17:03;9.47;;;6.37;;
16330;SDS011;8275;48.206;16.340;2024-01-15T09:19:32;7.90;;;5.18;;
16330;SDS011;8275;48.206;16.340;2024-01-15T09:22:01;5.53;;;5.03;;
16330;SDS011;8275;48.206;16.340;2024-01-15T09:24:30;9.27;;;5.97;;
16330;SDS011;8275;48.206;16.340;2024-01-15T09:27:00;8.40;;;5.05;;
16330;SDS011;8275;48.206;16.340;2024-01-15T09:29:29;9.53;;;5.47;;
16330;SDS011;8275;48.206;16.340;2024-01-15T09:31:58;5.73;;;4.93;;
16330;SDS011;8275;48.206;16.340;2024-01-15T09:34:29;7.10;;;5.20;;
16330;SDS011;8275;48.206;16.340;2024-01-15T09:36:58;7.83;;;4.80;;
16330;SDS011;8275;48.206;16.340;2024-01-15T09:39:27;8.57;;;5.43;;
16330;SDS011;8275;48.206;16.340;2024-01-15T09:41:55;8.80;;;6.18;;
16330;SDS011;8275;48.206;16.340;2024-01-15T09:44:26;5.60;;;5.07;;
16330;SDS011;8275;48.206;16.340;2024-01-15T09:46:56;7.97;;;7.18;;
16330;SDS011;8275;48.206;16.340;2024-01-15T09:49:25;10.43;;;5.30;;
16330;SDS011;8275;48.206;16.340;2024-01-15T09:51:54;5.80;;;4.35;;
16330;SDS011;8275;48.206;16.340;2024-01-15T09:54:36;5.53;;;4.65;;
16330;SDS011;8275;48.206;16.340;2024-01-15T09:57:06;7.65;;;5.55;;
16330;SDS011;8275;48.206;16.340;2024-01-15T09:59:37;6.10;;;5.45;;
16330;SDS011;8275;48.206;16.340;2024-01-15T10:02:07;5.68;;;5.10;;
16330;SDS011;8275;48.206;16.340;2024-01-15T10:04:36;5.72;;;4.93;;
16330;SDS011;8275;48.206;16.340;2024-01-15T10:07:04;8.30;;;5.20;;
16330;SDS011;8275;48.206;16.340;2024-01-15T10:09:35;6.53;;;5.00;;
16330;SDS011;8275;48.206;16.340;2024-01-15T10:12:04;7.55;;;5.88;;
16330;SDS011;8275;48.206;16.340;2024-01-15T10:14:34;10.60;;;5.03;;
16330;SDS011;8275;48.206;16.340;2024-01-15T10:17:10;9.23;;;5.78;;
16330;SDS011;8275;48.206;16.340;2024-01-15T10:19:41;6.63;;;5.90;;
16330;SDS011;8275;48.206;16.340;2024-01-15T10:22:15;6.43;;;5.38;;
16330;SDS011;8275;48.206;16.340;2024-01-15T10:24:45;7.68;;;5.78;;
16330;SDS011;8275;48.206;16.340;2024-01-15T10:27:15;9.32;;;4.55;;
16330;SDS011;8275;48.206;16.340;2024-01-15T10:29:43;6.10;;;4.53;;
16330;SDS011;8275;48.206;16.340;2024-01-15T10:32:13;11.63;;;4.20;;
16330;SDS011;8275;48.206;16.340;2024-01-15T10:34:42;7.85;;;5.53;;
16330;SDS011;8275;48.206;16.340;2024-01-15T10:37:10;4.53;;;3.95;;
16330;SDS011;8275;48.206;16.340;2024-01-15T10:39:39;3.65;;;3.35;;
16330;SDS011;8275;48.206;16.340;2024-01-15T10:42:08;5.30;;;4.40;;
16330;SDS011;8275;48.206;16.340;2024-01-15T10:44:36;4.70;;;4.30;;
16330;SDS011;8275;48.206;16.340;2024-01-15T10:47:05;9.18;;;5.07;;
16330;SDS011;8275;48.206;16.340;2024-01-15T10:49:35;7.35;;;3.88;;
16330;SDS011;8275;48.206;16.340;2024-01-15T10:52:04;7.97;;;4.10;;
16330;SDS011;8275;48.206;16.340;2024-01-15T10:54:32;6.20;;;5.60;;
16330;SDS011;8275;48.206;16.340;2024-01-15T10:57:04;2.78;;;2.58;;
16330;SDS011;8275;48.206;16.340;2024-01-15T10:59:33;5.10;;;4.60;;
16330;SDS011;8275;48.206;16.340;2024-01-15T11:02:02;4.28;;;3.85;;
16330;SDS011;8275;48.206;16.340;2024-01-15T11:04:31;6.10;;;4.65;;
16330;SDS011;8275;48.206;16.340;2024-01-15T11:07:02;5.78;;;4.57;;
16330;SDS011;8275;48.206;16.340;2024-01-15T11:09:32;7.70;;;3.90;;
16330;SDS011;8275;48.206;16.340;2024-01-15T11:12:06;4.43;;;4.03;;
16330;SDS011;8275;48.206;16.340;2024-01-15T11:14:41;9.60;;;4.72;;
16330;SDS011;8275;48.206;16.340;2024-01-15T11:17:13;6.65;;;3.95;;
16330;SDS011;8275;48.206;16.340;2024-01-15T11:19:44;6.00;;;3.30;;
16330;SDS011;8275;48.206;16.340;2024-01-15T11:25:18;5.38;;;4.00;;
16330;SDS011;8275;48.206;16.340;2024-01-15T11:27:47;4.75;;;4.10;;
16330;SDS011;8275;48.206;16.340;2024-01-15T11:30:19;7.25;;;4.18;;
16330;SDS011;8275;48.206;16.340;2024-01-15T11:32:52;4.63;;;4.22;;
16330;SDS011;8275;48.206;16.340;2024-01-15T11:35:21;3.65;;;3.35;;
16330;SDS011;8275;48.206;16.340;2024-01-15T11:37:58;6.60;;;4.38;;
16330;SDS011;8275;48.206;16.340;2024-01-15T11:40:37;4.07;;;3.38;;
16330;SDS011;8275;48.206;16.340;2024-01-15T11:43:09;5.57;;;4.38;;
16330;SDS011;8275;48.206;16.340;2024-01-15T11:45:40;3.58;;;3.28;;
16330;SDS011;8275;48.206;16.340;2024-01-15T11:48:09;10.90;;;4.65;;
16330;SDS011;8275;48.206;16.340;2024-01-15T11:50:41;15.48;;;6.82;;
16330;SDS011;8275;48.206;16.340;2024-01-15T11:53:17;4.85;;;4.30;;
16330;SDS011;8275;48.206;16.340;2024-01-15T11:55:57;4.15;;;3.85;;
16330;SDS011;8275;48.206;16.340;2024-01-15T11:58:27;4.47;;;3.88;;
16330;SDS011;8275;48.206;16.340;2024-01-15T12:00:56;4.07;;;3.67;;
16330;SDS011;8275;48.206;16.340;2024-01-15T12:03:25;6.07;;;4.70;;
16330;SDS011;8275;48.206;16.340;2024-01-15T12:05:54;8.20;;;5.78;;
16330;SDS011;8275;48.206;16.340;2024-01-15T12:08:25;4.63;;;4.22;;
16330;SDS011;8275;48.206;16.340;2024-01-15T12:10:54;4.45;;;4.05;;
16330;SDS011;8275;48.206;16.340;2024-01-15T12:13:23;7.75;;;4.00;;
16330;SDS011;8275;48.206;16.340;2024-01-15T12:15:52;3.75;;;3.42;;
16330;SDS011;8275;48.206;16.340;2024-01-15T12:18:22;3.65;;;3.35;;
16330;SDS011;8275;48.206;16.340;2024-01-15T12:20:53;6.20;;;3.83;;
16330;SDS011;8275;48.206;16.340;2024-01-15T12:23:23;4.53;;;3.97;;
16330;SDS011;8275;48.206;16.340;2024-01-15T12:25:54;4.68;;;4.28;;
16330;SDS011;8275;48.206;16.340;2024-01-15T12:28:22;4.90;;;4.20;;
16330;SDS011;8275;48.206;16.340;2024-01-15T12:30:51;7.40;;;4.13;;
16330;SDS011;8275;48.206;16.340;2024-01-15T12:33:19;4.43;;;3.90;;
16330;SDS011;8275;48.206;16.340;2024-01-15T12:35:48;5.00;;;4.50;;
16330;SDS011;8275;48.206;16.340;2024-01-15T12:38:20;11.30;;;4.47;;
16330;SDS011;8275;48.206;16.340;2024-01-15T12:40:50;5.10;;;4.70;;
16330;SDS011;8275;48.206;16.340;2024-01-15T12:43:18;4.10;;;3.75;;
16330;SDS011;8275;48.206;16.340;2024-01-15T12:45:47;10.23;;;4.18;;
16330;SDS011;8275;48.206;16.340;2024-01-15T12:48:15;3.55;;;2.80;;
16330;SDS011;8275;48.206;16.340;2024-01-15T12:50:45;4.07;;;3.42;;
16330;SDS011;8275;48.206;16.340;2024-01-15T12:53:14;6.53;;;3.15;;
16330;SDS011;8275;48.206;16.340;2024-01-15T12:55:44;4.18;;;3.45;;
16330;SDS011;8275;48.206;16.340;2024-01-15T12:58:14;3.90;;;3.45;;
16330;SDS011;8275;48.206;16.340;2024-01-15T13:00:46;4.53;;;3.35;;
16330;SDS011;8275;48.206;16.340;2024-01-15T13:03:15;3.65;;;3.20;;
16330;SDS011;8275;48.206;16.340;2024-01-15T13:05:43;4.32;;;2.70;;
16330;SDS011;8275;48.206;16.340;2024-01-15T13:08:13;5.85;;;3.67;;
16330;SDS011;8275;48.206;16.340;2024-01-15T13:10:41;4.63;;;2.70;;
16330;SDS011;8275;48.206;16.340;2024-01-15T13:13:10;7.00;;;3.58;;
16330;SDS011;8275;48.206;16.340;2024-01-15T13:15:41;5.10;;;3.28;;
16330;SDS011;8275;48.206;16.340;2024-01-15T13:18:09;4.18;;;3.10;;
16330;SDS011;8275;48.206;16.340;2024-01-15T13:20:39;3.00;;;2.80;;
16330;SDS011;8275;48.206;16.340;2024-01-15T13:23:07;3.42;;;3.03;;
16330;SDS011;8275;48.206;16.340;2024-01-15T13:25:36;3.92;;;3.00;;
16330;SDS011;8275;48.206;16.340;2024-01-15T13:28:05;3.63;;;2.75;;
16330;SDS011;8275;48.206;16.340;2024-01-15T13:30:34;6.05;;;4.28;;
16330;SDS011;8275;48.206;16.340;2024-01-15T13:33:05;3.35;;;2.97;;
16330;SDS011;8275;48.206;16.340;2024-01-15T13:35:35;3.25;;;2.88;;
16330;SDS011;8275;48.206;16.340;2024-01-15T13:38:03;4.50;;;3.08;;
16330;SDS011;8275;48.206;16.340;2024-01-15T13:40:32;3.42;;;3.05;;
16330;SDS011;8275;48.206;16.340;2024-01-15T13:43:00;4.15;;;2.75;;
16330;SDS011;8275;48.206;16.340;2024-01-15T13:45:33;3.97;;;2.78;;
16330;SDS011;8275;48.206;16.340;2024-01-15T13:48:04;2.70;;;2.33;;
16330;SDS011;8275;48.206;16.340;2024-01-15T13:50:34;5.18;;;2.72;;
16330;SDS011;8275;48.206;16.340;2024-01-15T13:53:03;4.15;;;2.88;;
16330;SDS011;8275;48.206;16.340;2024-01-15T13:55:32;6.05;;;2.70;;
16330;SDS011;8275;48.206;16.340;2024-01-15T13:58:00;3.58;;;2.45;;
16330;SDS011;8275;48.206;16.340;2024-01-15T14:00:32;5.80;;;2.97;;
16330;SDS011;8275;48.206;16.340;2024-01-15T14:03:01;5.22;;;3.05;;
16330;SDS011;8275;48.206;16.340;2024-01-15T14:05:31;5.38;;;3.00;;
16330;SDS011;8275;48.206;16.340;2024-01-15T14:08:01;5.25;;;3.58;;
16330;SDS011;8275;48.206;16.340;2024-01-15T14:10:30;3.67;;;2.15;;
16330;SDS011;8275;48.206;16.340;2024-01-15T14:12:59;3.45;;;2.53;;
16330;SDS011;8275;48.206;16.340;2024-01-15T14:15:28;4.65;;;2.65;;
16330;SDS011;8275;48.206;16.340;2024-01-15T14:17:57;4.05;;;3.45;;
16330;SDS011;8275;48.206;16.340;2024-01-15T14:20:26;4.38;;;3.90;;
16330;SDS011;8275;48.206;16.340;2024-01-15T14:22:56;4.43;;;3.78;;
16330;SDS011;8275;48.206;16.340;2024-01-15T14:25:25;3.55;;;3.25;;
16330;SDS011;8275;48.206;16.340;2024-01-15T14:27:53;4.30;;;2.63;;
16330;SDS011;8275;48.206;16.340;2024-01-15T14:30:22;3.65;;;3.33;;
16330;SDS011;8275;48.206;16.340;2024-01-15T14:32:51;3.03;;;2.63;;
16330;SDS011;8275;48.206;16.340;2024-01-15T14:35:20;3.03;;;2.72;;
16330;SDS011;8275;48.206;16.340;2024-01-15T14:37:49;10.05;;;3.10;;
16330;SDS011;8275;48.206;16.340;2024-01-15T14:40:19;3.28;;;2.80;;
16330;SDS011;8275;48.206;16.340;2024-01-15T14:42:47;5.43;;;3.60;;
16330;SDS011;8275;48.206;16.340;2024-01-15T14:45:16;2.67;;;2.47;;
16330;SDS011;8275;48.206;16.340;2024-01-15T14:47:45;3.83;;;2.75;;
16330;SDS011;8275;48.206;16.340;2024-01-15T14:50:14;4.13;;;3.17;;
16330;SDS011;8275;48.206;16.340;2024-01-15T14:52:42;2.60;;;2.40;;
16330;SDS011;8275;48.206;16.340;2024-01-15T14:55:12;5.45;;;2.65;;
16330;SDS011;8275;48.206;16.340;2024-01-15T14:57:42;4.32;;;2.90;;